This is the latest recevied weather packets stored in our database for station/object KC3AWA. If no packets are shown the sender has not sent any weather packets the latest 10 day(s).
| Time | Temp. | Humidity | Pressure | Rain* | Wind** | Luminosity | Snow |
|---|---|---|---|---|---|---|---|
| 1778020618 | 14.44° C | 90% | 1009.2 hPa | 0 mm | - | 85 W/m² | - |
| 1778020314 | 14.44° C | 89% | 1009 hPa | 0 mm | - | 91 W/m² | - |
| 1778020010 | 14.44° C | 89% | 1009.1 hPa | 0 mm | - | 81 W/m² | - |
| 1778019706 | 14.44° C | 89% | 1009 hPa | 0 mm | - | 63 W/m² | - |
| 1778019403 | 15° C | 89% | 1009.4 hPa | 0 mm | - | 71 W/m² | - |
| 1778019100 | 15° C | 89% | 1009.4 hPa | 1.27 mm | - | 19 W/m² | - |
| 1778018798 | 15° C | 89% | 1009.2 hPa | 3.05 mm | - | 50 W/m² | - |
| 1778018495 | 15.56° C | 86% | 1009 hPa | 1.78 mm | - | 11 W/m² | - |
| 1778018192 | 15.56° C | 84% | 1008.5 hPa | 1.27 mm | - | 23 W/m² | - |
| 1778017891 | 16.11° C | 82% | 1008.6 hPa | 1.27 mm | - | 38 W/m² | - |
| 1778017588 | 16.67° C | 79% | 1008.9 hPa | 0 mm | - | 24 W/m² | - |
| 1778017285 | 17.78° C | 76% | 1008.4 hPa | 0 mm | - | 26 W/m² | - |
| 1778016983 | 18.33° C | 69% | 1008.5 hPa | 0 mm | - | 31 W/m² | - |
| 1778016679 | 18.89° C | 63% | 1008.4 hPa | 0 mm | - | 33 W/m² | - |
| 1778016375 | 19.44° C | 59% | 1008.2 hPa | 0 mm | - | 40 W/m² | - |
| 1778016073 | 19.44° C | 58% | 1008.4 hPa | 0 mm | - | 82 W/m² | - |
| 1778015769 | 19.44° C | 58% | 1008.3 hPa | 0 mm | - | 90 W/m² | - |
| 1778015467 | 19.44° C | 58% | 1008.1 hPa | 0 mm | - | 110 W/m² | - |
| 1778015163 | 19.44° C | 58% | 1008.2 hPa | 0 mm | - | 120 W/m² | - |
| 1778014860 | 19.44° C | 60% | 1008.3 hPa | 0 mm | - | 90 W/m² | - |
| 1778014558 | 19.44° C | 57% | 1008.3 hPa | 0 mm | - | 85 W/m² | - |
| 1778014256 | 19.44° C | 57% | 1008.2 hPa | 0 mm | - | 118 W/m² | - |
| 1778013953 | 19.44° C | 58% | 1008.3 hPa | 0 mm | - | 140 W/m² | - |
| 1778013650 | 19.44° C | 58% | 1008.3 hPa | 0 mm | - | 155 W/m² | - |
| 1778013346 | 19.44° C | 57% | 1008.3 hPa | 0 mm | - | 163 W/m² | - |
* Rain latest hour (hover to see other rain measurements)
** Current wind speed in m/s (hover to see current wind gust speed)